sensor_id;sensor_type;location;lat;lon;timestamp;pressure;altitude;pressure_sealevel;temperature;humidity
24558;BME280;12726;49.148;8.582;2023-02-28T00:01:43;101288.06;;;-1.19;72.42
24558;BME280;12726;49.148;8.582;2023-02-28T00:04:28;101288.91;;;-1.19;72.35
24558;BME280;12726;49.148;8.582;2023-02-28T00:07:14;101284.72;;;-1.21;72.46
24558;BME280;12726;49.148;8.582;2023-02-28T00:10:01;101286.75;;;-1.25;72.86
24558;BME280;12726;49.148;8.582;2023-02-28T00:12:46;101285.06;;;-1.26;72.87
24558;BME280;12726;49.148;8.582;2023-02-28T00:15:32;101269.69;;;-1.32;72.92
24558;BME280;12726;49.148;8.582;2023-02-28T00:18:18;101281.94;;;-1.20;72.86
24558;BME280;12726;49.148;8.582;2023-02-28T00:21:04;101276.66;;;-1.20;72.51
24558;BME280;12726;49.148;8.582;2023-02-28T00:23:49;101277.88;;;-1.24;72.66
24558;BME280;12726;49.148;8.582;2023-02-28T00:26:36;101285.31;;;-1.29;72.80
24558;BME280;12726;49.148;8.582;2023-02-28T00:29:21;101286.25;;;-1.30;72.91
24558;BME280;12726;49.148;8.582;2023-02-28T00:32:07;101284.69;;;-1.32;72.75
24558;BME280;12726;49.148;8.582;2023-02-28T00:34:52;101285.53;;;-1.32;72.60
24558;BME280;12726;49.148;8.582;2023-02-28T00:37:38;101279.97;;;-1.40;72.68
24558;BME280;12726;49.148;8.582;2023-02-28T00:40:23;101285.34;;;-1.41;73.24
24558;BME280;12726;49.148;8.582;2023-02-28T00:43:09;101278.41;;;-1.42;73.26
24558;BME280;12726;49.148;8.582;2023-02-28T00:45:55;101278.16;;;-1.39;73.17
24558;BME280;12726;49.148;8.582;2023-02-28T00:48:41;101283.69;;;-1.42;73.25
24558;BME280;12726;49.148;8.582;2023-02-28T00:51:26;101285.91;;;-1.49;73.48
24558;BME280;12726;49.148;8.582;2023-02-28T00:54:11;101278.34;;;-1.53;73.61
24558;BME280;12726;49.148;8.582;2023-02-28T00:56:56;101288.31;;;-1.57;73.62
24558;BME280;12726;49.148;8.582;2023-02-28T00:59:43;101282.50;;;-1.62;74.60
24558;BME280;12726;49.148;8.582;2023-02-28T01:02:29;101278.91;;;-1.61;74.39
24558;BME280;12726;49.148;8.582;2023-02-28T01:05:14;101281.66;;;-1.63;74.53
24558;BME280;12726;49.148;8.582;2023-02-28T01:07:59;101280.09;;;-1.65;74.81
24558;BME280;12726;49.148;8.582;2023-02-28T01:10:45;101274.38;;;-1.59;74.93
24558;BME280;12726;49.148;8.582;2023-02-28T01:13:30;101279.75;;;-1.61;74.99
24558;BME280;12726;49.148;8.582;2023-02-28T01:16:17;101281.91;;;-1.66;75.23
24558;BME280;12726;49.148;8.582;2023-02-28T01:19:03;101285.28;;;-1.64;75.48
24558;BME280;12726;49.148;8.582;2023-02-28T01:21:50;101277.84;;;-1.59;75.09
24558;BME280;12726;49.148;8.582;2023-02-28T01:24:35;101274.84;;;-1.65;75.50
24558;BME280;12726;49.148;8.582;2023-02-28T01:27:22;101276.84;;;-1.69;75.57
24558;BME280;12726;49.148;8.582;2023-02-28T01:30:08;101273.25;;;-1.68;75.63
24558;BME280;12726;49.148;8.582;2023-02-28T01:32:59;101273.88;;;-1.64;75.33
24558;BME280;12726;49.148;8.582;2023-02-28T01:35:44;101281.06;;;-1.66;75.75
24558;BME280;12726;49.148;8.582;2023-02-28T01:38:30;101277.47;;;-1.65;75.68
24558;BME280;12726;49.148;8.582;2023-02-28T01:41:18;101280.00;;;-1.64;75.57
24558;BME280;12726;49.148;8.582;2023-02-28T01:44:05;101270.25;;;-1.63;75.83
24558;BME280;12726;49.148;8.582;2023-02-28T01:46:51;101278.59;;;-1.56;75.57
24558;BME280;12726;49.148;8.582;2023-02-28T01:49:38;101271.34;;;-1.66;75.78
24558;BME280;12726;49.148;8.582;2023-02-28T01:52:23;101274.09;;;-1.67;75.91
24558;BME280;12726;49.148;8.582;2023-02-28T01:55:10;101267.13;;;-1.68;75.80
24558;BME280;12726;49.148;8.582;2023-02-28T01:58:00;101270.84;;;-1.71;76.21
24558;BME280;12726;49.148;8.582;2023-02-28T02:00:47;101263.88;;;-1.72;76.16
24558;BME280;12726;49.148;8.582;2023-02-28T02:03:32;101273.25;;;-1.68;76.07
24558;BME280;12726;49.148;8.582;2023-02-28T02:06:22;101267.47;;;-1.73;76.67
24558;BME280;12726;49.148;8.582;2023-02-28T02:09:07;101265.16;;;-1.77;76.77
24558;BME280;12726;49.148;8.582;2023-02-28T02:11:55;101261.69;;;-1.78;77.03
24558;BME280;12726;49.148;8.582;2023-02-28T02:14:50;101259.16;;;-1.79;77.27
24558;BME280;12726;49.148;8.582;2023-02-28T02:17:45;101265.50;;;-1.82;77.10
24558;BME280;12726;49.148;8.582;2023-02-28T02:24:26;101252.66;;;-1.86;77.24
24558;BME280;12726;49.148;8.582;2023-02-28T02:27:23;101251.47;;;-1.82;77.52
24558;BME280;12726;49.148;8.582;2023-02-28T02:37:08;101252.66;;;-1.86;77.64
24558;BME280;12726;49.148;8.582;2023-02-28T02:40:00;101259.72;;;-1.87;77.54
24558;BME280;12726;49.148;8.582;2023-02-28T02:42:51;101256.13;;;-1.86;77.30
24558;BME280;12726;49.148;8.582;2023-02-28T02:45:44;101256.44;;;-1.90;77.97
24558;BME280;12726;49.148;8.582;2023-02-28T02:48:34;101251.41;;;-1.93;77.87
24558;BME280;12726;49.148;8.582;2023-02-28T02:51:23;101263.53;;;-1.91;77.68
24558;BME280;12726;49.148;8.582;2023-02-28T02:54:13;101249.94;;;-1.98;77.89
24558;BME280;12726;49.148;8.582;2023-02-28T02:57:04;101261.22;;;-1.95;78.52
24558;BME280;12726;49.148;8.582;2023-02-28T02:59:53;101255.56;;;-2.02;78.29
24558;BME280;12726;49.148;8.582;2023-02-28T03:02:40;101254.50;;;-2.00;78.60
24558;BME280;12726;49.148;8.582;2023-02-28T03:05:28;101256.50;;;-2.03;78.84
24558;BME280;12726;49.148;8.582;2023-02-28T03:08:15;101265.59;;;-2.07;78.96
24558;BME280;12726;49.148;8.582;2023-02-28T03:11:03;101252.72;;;-2.12;79.06
24558;BME280;12726;49.148;8.582;2023-02-28T03:20:17;101258.44;;;-2.18;79.53
24558;BME280;12726;49.148;8.582;2023-02-28T03:23:13;101255.75;;;-2.05;79.16
24558;BME280;12726;49.148;8.582;2023-02-28T03:26:06;101264.34;;;-2.14;78.66
24558;BME280;12726;49.148;8.582;2023-02-28T03:28:57;101250.78;;;-2.21;79.20
24558;BME280;12726;49.148;8.582;2023-02-28T03:31:50;101256.25;;;-2.24;78.93
24558;BME280;12726;49.148;8.582;2023-02-28T03:34:38;101258.50;;;-2.30;79.28
24558;BME280;12726;49.148;8.582;2023-02-28T03:37:25;101253.31;;;-2.32;79.81
24558;BME280;12726;49.148;8.582;2023-02-28T03:40:15;101257.84;;;-2.34;79.38
24558;BME280;12726;49.148;8.582;2023-02-28T03:43:10;101248.81;;;-2.43;80.05
24558;BME280;12726;49.148;8.582;2023-02-28T03:45:57;101251.88;;;-2.36;79.80
24558;BME280;12726;49.148;8.582;2023-02-28T03:48:51;101253.66;;;-2.37;79.56
24558;BME280;12726;49.148;8.582;2023-02-28T03:51:40;101258.38;;;-2.29;79.64
24558;BME280;12726;49.148;8.582;2023-02-28T03:54:30;101246.47;;;-2.34;79.87
24558;BME280;12726;49.148;8.582;2023-02-28T03:57:22;101261.47;;;-2.35;79.74
24558;BME280;12726;49.148;8.582;2023-02-28T04:00:18;101248.88;;;-2.31;79.76
24558;BME280;12726;49.148;8.582;2023-02-28T04:03:05;101259.53;;;-2.33;80.10
24558;BME280;12726;49.148;8.582;2023-02-28T04:05:52;101262.28;;;-2.22;79.43
24558;BME280;12726;49.148;8.582;2023-02-28T04:08:38;101270.28;;;-2.23;79.70
24558;BME280;12726;49.148;8.582;2023-02-28T04:11:27;101258.38;;;-2.29;79.55
24558;BME280;12726;49.148;8.582;2023-02-28T04:14:14;101261.97;;;-2.30;79.28
24558;BME280;12726;49.148;8.582;2023-02-28T04:17:01;101260.78;;;-2.26;79.36
24558;BME280;12726;49.148;8.582;2023-02-28T04:19:47;101260.47;;;-2.21;78.97
24558;BME280;12726;49.148;8.582;2023-02-28T04:22:32;101265.13;;;-2.25;79.22
24558;BME280;12726;49.148;8.582;2023-02-28T04:25:17;101256.44;;;-2.14;78.93
24558;BME280;12726;49.148;8.582;2023-02-28T04:28:03;101261.81;;;-2.16;78.80
24558;BME280;12726;49.148;8.582;2023-02-28T04:30:54;101264.34;;;-2.14;79.19
24558;BME280;12726;49.148;8.582;2023-02-28T04:33:41;101259.94;;;-2.14;79.27
24558;BME280;12726;49.148;8.582;2023-02-28T04:36:26;101259.47;;;-2.08;78.92
24558;BME280;12726;49.148;8.582;2023-02-28T04:39:12;101258.63;;;-2.08;78.65
24558;BME280;12726;49.148;8.582;2023-02-28T04:41:58;101260.09;;;-2.04;79.10
24558;BME280;12726;49.148;8.582;2023-02-28T04:44:44;101255.56;;;-2.02;79.12
24558;BME280;12726;49.148;8.582;2023-02-28T04:47:29;101264.31;;;-2.02;78.85
24558;BME280;12726;49.148;8.582;2023-02-28T04:50:16;101258.59;;;-1.95;79.28
24558;BME280;12726;49.148;8.582;2023-02-28T04:53:01;101257.97;;;-1.75;78.70
24558;BME280;12726;49.148;8.582;2023-02-28T04:55:47;101256.28;;;-1.76;78.15
24558;BME280;12726;49.148;8.582;2023-02-28T04:58:32;101255.44;;;-1.77;78.51
24558;BME280;12726;49.148;8.582;2023-02-28T05:01:21;101264.72;;;-1.71;77.99
24558;BME280;12726;49.148;8.582;2023-02-28T05:04:10;101263.34;;;-1.77;78.04
24558;BME280;12726;49.148;8.582;2023-02-28T05:06:57;101264.72;;;-1.71;77.93
24558;BME280;12726;49.148;8.582;2023-02-28T05:09:42;101262.28;;;-1.74;78.54
24558;BME280;12726;49.148;8.582;2023-02-28T05:12:28;101264.84;;;-1.73;78.72
24558;BME280;12726;49.148;8.582;2023-02-28T05:15:14;101269.38;;;-1.75;78.67
24558;BME280;12726;49.148;8.582;2023-02-28T05:18:00;101264.38;;;-1.67;77.98
24558;BME280;12726;49.148;8.582;2023-02-28T05:20:45;101259.94;;;-1.66;78.01
24558;BME280;12726;49.148;8.582;2023-02-28T05:23:32;101268.72;;;-1.66;78.39
24558;BME280;12726;49.148;8.582;2023-02-28T05:26:17;101273.41;;;-1.58;78.12
24558;BME280;12726;49.148;8.582;2023-02-28T05:29:03;101270.69;;;-1.56;77.94
24558;BME280;12726;49.148;8.582;2023-02-28T05:31:49;101271.16;;;-1.51;77.77
24558;BME280;12726;49.148;8.582;2023-02-28T05:34:33;101274.66;;;-1.51;77.71
24558;BME280;12726;49.148;8.582;2023-02-28T05:37:19;101285.03;;;-1.37;76.33
24558;BME280;12726;49.148;8.582;2023-02-28T05:40:07;101280.22;;;-1.43;76.50
24558;BME280;12726;49.148;8.582;2023-02-28T05:42:53;101280.44;;;-1.46;76.67
24558;BME280;12726;49.148;8.582;2023-02-28T05:45:39;101282.00;;;-1.43;76.55
24558;BME280;12726;49.148;8.582;2023-02-28T05:48:24;101287.97;;;-1.52;77.04
24558;BME280;12726;49.148;8.582;2023-02-28T05:51:09;101279.47;;;-1.45;76.62
24558;BME280;12726;49.148;8.582;2023-02-28T05:53:58;101278.84;;;-1.48;76.56
24558;BME280;12726;49.148;8.582;2023-02-28T05:56:45;101283.53;;;-1.52;76.60
24558;BME280;12726;49.148;8.582;2023-02-28T05:59:30;101286.19;;;-1.41;76.19
24558;BME280;12726;49.148;8.582;2023-02-28T06:02:17;101293.56;;;-1.33;75.61
24558;BME280;12726;49.148;8.582;2023-02-28T06:05:02;101280.81;;;-1.39;75.97
24558;BME280;12726;49.148;8.582;2023-02-28T06:07:47;101283.41;;;-1.50;76.19
24558;BME280;12726;49.148;8.582;2023-02-28T06:10:32;101278.59;;;-1.56;76.57
24558;BME280;12726;49.148;8.582;2023-02-28T06:13:19;101285.53;;;-1.55;76.83
24558;BME280;12726;49.148;8.582;2023-02-28T06:16:05;101276.91;;;-1.58;76.84
24558;BME280;12726;49.148;8.582;2023-02-28T06:18:51;101284.59;;;-1.54;76.87
24558;BME280;12726;49.148;8.582;2023-02-28T06:21:39;101281.00;;;-1.53;77.07
24558;BME280;12726;49.148;8.582;2023-02-28T06:24:25;101283.81;;;-1.44;76.30
24558;BME280;12726;49.148;8.582;2023-02-28T06:27:11;101278.16;;;-1.39;76.28
24558;BME280;12726;49.148;8.582;2023-02-28T06:29:58;101290.91;;;-1.33;75.81
24558;BME280;12726;49.148;8.582;2023-02-28T06:32:44;101288.66;;;-1.27;75.37
24558;BME280;12726;49.148;8.582;2023-02-28T06:35:29;101297.09;;;-1.22;75.53
24558;BME280;12726;49.148;8.582;2023-02-28T06:38:15;101295.41;;;-1.23;75.11
24558;BME280;12726;49.148;8.582;2023-02-28T06:41:01;101290.97;;;-1.22;75.07
24558;BME280;12726;49.148;8.582;2023-02-28T06:43:46;101296.84;;;-1.19;75.44
24558;BME280;12726;49.148;8.582;2023-02-28T06:46:33;101296.16;;;-1.09;74.52
24558;BME280;12726;49.148;8.582;2023-02-28T06:49:18;101300.13;;;-1.04;74.37
24558;BME280;12726;49.148;8.582;2023-02-28T06:52:04;101307.00;;;-1.01;74.03
24558;BME280;12726;49.148;8.582;2023-02-28T06:54:49;101312.03;;;-0.98;74.16
24558;BME280;12726;49.148;8.582;2023-02-28T06:57:43;101315.53;;;-0.98;74.02
24558;BME280;12726;49.148;8.582;2023-02-28T07:00:28;101327.44;;;-0.92;74.32
24558;BME280;12726;49.148;8.582;2023-02-28T07:03:15;101329.16;;;-0.80;73.52
24558;BME280;12726;49.148;8.582;2023-02-28T07:06:01;101322.28;;;-0.83;73.71
24558;BME280;12726;49.148;8.582;2023-02-28T07:08:48;101329.16;;;-0.80;73.65
24558;BME280;12726;49.148;8.582;2023-02-28T07:11:33;101334.66;;;-0.83;73.56
24558;BME280;12726;49.148;8.582;2023-02-28T07:14:19;101327.22;;;-0.78;73.55
24558;BME280;12726;49.148;8.582;2023-02-28T07:17:06;101337.47;;;-0.73;73.51
24558;BME280;12726;49.148;8.582;2023-02-28T07:19:53;101338.31;;;-0.73;73.06
24558;BME280;12726;49.148;8.582;2023-02-28T07:22:38;101337.56;;;-0.75;72.76
24558;BME280;12726;49.148;8.582;2023-02-28T07:25:24;101327.94;;;-0.76;73.00
24558;BME280;12726;49.148;8.582;2023-02-28T07:28:10;101353.97;;;-0.59;72.44
24558;BME280;12726;49.148;8.582;2023-02-28T07:30:55;101351.06;;;-0.56;72.04
24558;BME280;12726;49.148;8.582;2023-02-28T07:33:41;101357.31;;;-0.57;72.50
24558;BME280;12726;49.148;8.582;2023-02-28T07:36:27;101357.72;;;-0.50;71.75
24558;BME280;12726;49.148;8.582;2023-02-28T07:39:13;101353.84;;;-0.46;71.71
24558;BME280;12726;49.148;8.582;2023-02-28T07:41:58;101347.59;;;-0.34;71.58
24558;BME280;12726;49.148;8.582;2023-02-28T07:44:44;101351.34;;;-0.25;71.03
24558;BME280;12726;49.148;8.582;2023-02-28T07:47:29;101355.56;;;-0.12;70.57
24558;BME280;12726;49.148;8.582;2023-02-28T07:50:15;101348.06;;;-0.07;70.04
24558;BME280;12726;49.148;8.582;2023-02-28T07:53:02;101356.88;;;0.05;69.26
24558;BME280;12726;49.148;8.582;2023-02-28T07:55:48;101354.59;;;0.12;68.68
24558;BME280;12726;49.148;8.582;2023-02-28T07:58:33;101351.63;;;0.37;67.92
24558;BME280;12726;49.148;8.582;2023-02-28T08:01:19;101353.59;;;0.78;66.27
24558;BME280;12726;49.148;8.582;2023-02-28T08:04:04;101345.78;;;0.97;65.37
24558;BME280;12726;49.148;8.582;2023-02-28T08:06:50;101349.53;;;1.36;64.88
24558;BME280;12726;49.148;8.582;2023-02-28T08:09:39;101354.25;;;1.53;63.31
24558;BME280;12726;49.148;8.582;2023-02-28T08:12:24;101342.75;;;1.74;62.02
24558;BME280;12726;49.148;8.582;2023-02-28T08:15:10;101354.78;;;1.78;61.34
24558;BME280;12726;49.148;8.582;2023-02-28T08:17:56;101347.75;;;2.57;59.21
24558;BME280;12726;49.148;8.582;2023-02-28T08:20:41;101352.09;;;3.35;56.34
24558;BME280;12726;49.148;8.582;2023-02-28T08:23:26;101348.78;;;4.61;52.80
24558;BME280;12726;49.148;8.582;2023-02-28T08:26:13;101341.91;;;4.59;52.13
24558;BME280;12726;49.148;8.582;2023-02-28T08:28:58;101352.19;;;4.26;52.55
24558;BME280;12726;49.148;8.582;2023-02-28T08:31:44;101348.97;;;4.50;51.71
24558;BME280;12726;49.148;8.582;2023-02-28T08:34:29;101347.53;;;4.91;50.49
24558;BME280;12726;49.148;8.582;2023-02-28T08:37:15;101343.97;;;5.70;48.20
24558;BME280;12726;49.148;8.582;2023-02-28T08:40:00;101342.53;;;5.75;46.92
24558;BME280;12726;49.148;8.582;2023-02-28T08:42:50;101337.47;;;6.32;46.25
24558;BME280;12726;49.148;8.582;2023-02-28T08:45:35;101341.59;;;6.26;45.60
24558;BME280;12726;49.148;8.582;2023-02-28T08:48:20;101343.59;;;6.83;44.24
24558;BME280;12726;49.148;8.582;2023-02-28T08:51:07;101349.78;;;6.91;43.88
24558;BME280;12726;49.148;8.582;2023-02-28T08:53:54;101351.97;;;7.04;42.93
24558;BME280;12726;49.148;8.582;2023-02-28T08:56:39;101348.13;;;6.74;44.18
24558;BME280;12726;49.148;8.582;2023-02-28T08:59:26;101351.81;;;6.97;43.20
24558;BME280;12726;49.148;8.582;2023-02-28T09:02:12;101349.16;;;7.22;43.31
24558;BME280;12726;49.148;8.582;2023-02-28T09:04:58;101347.94;;;7.48;42.48
24558;BME280;12726;49.148;8.582;2023-02-28T09:07:43;101343.47;;;7.96;41.57
24558;BME280;12726;49.148;8.582;2023-02-28T09:10:28;101337.63;;;8.71;40.31
24558;BME280;12726;49.148;8.582;2023-02-28T09:13:14;101341.50;;;8.45;40.18
24558;BME280;12726;49.148;8.582;2023-02-28T09:16:01;101339.69;;;8.30;40.05
24558;BME280;12726;49.148;8.582;2023-02-28T09:18:47;101345.81;;;8.77;40.19
24558;BME280;12726;49.148;8.582;2023-02-28T09:21:33;101334.13;;;8.93;39.13
24558;BME280;12726;49.148;8.582;2023-02-28T09:24:18;101325.41;;;9.51;37.44
24558;BME280;12726;49.148;8.582;2023-02-28T09:27:04;101337.28;;;9.71;37.17
24558;BME280;12726;49.148;8.582;2023-02-28T09:29:50;101340.50;;;9.67;37.15
24558;BME280;12726;49.148;8.582;2023-02-28T09:32:36;101332.19;;;9.62;37.33
24558;BME280;12726;49.148;8.582;2023-02-28T09:35:23;101326.25;;;9.52;38.17
24558;BME280;12726;49.148;8.582;2023-02-28T09:38:10;101332.59;;;9.36;37.51
24558;BME280;12726;49.148;8.582;2023-02-28T09:40:58;101334.59;;;9.57;37.38
24558;BME280;12726;49.148;8.582;2023-02-28T09:43:46;101328.00;;;9.59;37.04
24558;BME280;12726;49.148;8.582;2023-02-28T09:46:34;101324.13;;;9.24;36.99
24558;BME280;12726;49.148;8.582;2023-02-28T09:49:25;101319.88;;;8.92;37.96
24558;BME280;12726;49.148;8.582;2023-02-28T09:52:17;101329.13;;;9.65;37.44
24558;BME280;12726;49.148;8.582;2023-02-28T09:55:18;101335.09;;;10.19;35.84
24558;BME280;12726;49.148;8.582;2023-02-28T09:58:05;101332.75;;;10.01;35.87
24558;BME280;12726;49.148;8.582;2023-02-28T10:01:03;101330.34;;;9.77;35.90
24558;BME280;12726;49.148;8.582;2023-02-28T10:03:56;101328.66;;;9.91;36.21
24558;BME280;12726;49.148;8.582;2023-02-28T10:06:49;101328.00;;;10.33;35.44
24558;BME280;12726;49.148;8.582;2023-02-28T10:09:35;101334.38;;;11.04;34.66
24558;BME280;12726;49.148;8.582;2023-02-28T10:12:22;101331.69;;;11.04;33.67
24558;BME280;12726;49.148;8.582;2023-02-28T10:15:13;101336.47;;;10.44;34.93
24558;BME280;12726;49.148;8.582;2023-02-28T10:18:03;101335.84;;;10.64;34.48
24558;BME280;12726;49.148;8.582;2023-02-28T10:20:50;101341.34;;;9.67;35.65
24558;BME280;12726;49.148;8.582;2023-02-28T10:23:37;101337.41;;;8.80;37.51
24558;BME280;12726;49.148;8.582;2023-02-28T10:26:26;101334.41;;;8.52;38.46
24558;BME280;12726;49.148;8.582;2023-02-28T10:29:13;101334.72;;;8.10;38.96
24558;BME280;12726;49.148;8.582;2023-02-28T10:32:01;101340.72;;;7.73;41.17
24558;BME280;12726;49.148;8.582;2023-02-28T10:34:51;101347.81;;;7.01;41.01
24558;BME280;12726;49.148;8.582;2023-02-28T10:37:37;101352.91;;;6.46;42.71
24558;BME280;12726;49.148;8.582;2023-02-28T10:40:30;101343.63;;;7.07;42.24
24558;BME280;12726;49.148;8.582;2023-02-28T10:43:23;101340.75;;;7.25;42.02
24558;BME280;12726;49.148;8.582;2023-02-28T10:46:15;101337.06;;;6.85;41.80
24558;BME280;12726;49.148;8.582;2023-02-28T10:49:14;101342.84;;;6.48;43.11
24558;BME280;12726;49.148;8.582;2023-02-28T10:52:00;101341.00;;;6.49;42.86
24558;BME280;12726;49.148;8.582;2023-02-28T10:54:46;101342.88;;;5.80;44.18
24558;BME280;12726;49.148;8.582;2023-02-28T10:57:38;101341.53;;;6.52;43.30
24558;BME280;12726;49.148;8.582;2023-02-28T11:00:24;101343.38;;;6.68;43.14
24558;BME280;12726;49.148;8.582;2023-02-28T11:03:23;101348.31;;;5.88;44.87
24558;BME280;12726;49.148;8.582;2023-02-28T11:06:16;101337.38;;;6.66;43.60
24558;BME280;12726;49.148;8.582;2023-02-28T11:09:04;101334.22;;;8.15;40.12
24558;BME280;12726;49.148;8.582;2023-02-28T11:11:51;101321.47;;;9.01;38.16
24558;BME280;12726;49.148;8.582;2023-02-28T11:14:46;101315.88;;;9.26;37.21
24558;BME280;12726;49.148;8.582;2023-02-28T11:17:33;101318.88;;;10.48;35.45
24558;BME280;12726;49.148;8.582;2023-02-28T11:20:20;101325.41;;;10.10;35.00
24558;BME280;12726;49.148;8.582;2023-02-28T11:23:12;101316.50;;;10.39;34.93
24558;BME280;12726;49.148;8.582;2023-02-28T11:26:00;101317.41;;;9.06;37.06
24558;BME280;12726;49.148;8.582;2023-02-28T11:28:48;101312.13;;;7.97;38.77
24558;BME280;12726;49.148;8.582;2023-02-28T11:32:13;101321.34;;;6.98;41.43
24558;BME280;12726;49.148;8.582;2023-02-28T11:35:02;101316.84;;;6.91;42.12
24558;BME280;12726;49.148;8.582;2023-02-28T11:37:48;101310.63;;;7.39;41.11
24558;BME280;12726;49.148;8.582;2023-02-28T11:40:41;101304.53;;;8.16;39.49
24558;BME280;12726;49.148;8.582;2023-02-28T11:43:38;101296.97;;;9.71;37.50
24558;BME280;12726;49.148;8.582;2023-02-28T11:46:30;101296.56;;;10.33;35.83
24558;BME280;12726;49.148;8.582;2023-02-28T11:49:30;101282.41;;;11.93;32.85
24558;BME280;12726;49.148;8.582;2023-02-28T11:52:22;101298.22;;;12.03;32.21
24558;BME280;12726;49.148;8.582;2023-02-28T11:55:16;101293.34;;;13.46;30.48
24558;BME280;12726;49.148;8.582;2023-02-28T12:01:37;101296.25;;;12.31;31.24
24558;BME280;12726;49.148;8.582;2023-02-28T12:04:34;101298.91;;;12.92;30.60
24558;BME280;12726;49.148;8.582;2023-02-28T12:07:30;101304.81;;;13.35;30.10
24558;BME280;12726;49.148;8.582;2023-02-28T12:10:21;101299.50;;;12.81;30.46
24558;BME280;12726;49.148;8.582;2023-02-28T12:13:15;101298.66;;;13.92;29.05
24558;BME280;12726;49.148;8.582;2023-02-28T12:19:19;101292.78;;;14.91;27.58
24558;BME280;12726;49.148;8.582;2023-02-28T12:22:15;101286.72;;;15.88;27.00
24558;BME280;12726;49.148;8.582;2023-02-28T12:25:30;101293.81;;;15.89;26.07
24558;BME280;12726;49.148;8.582;2023-02-28T12:28:23;101280.13;;;15.10;26.78
24558;BME280;12726;49.148;8.582;2023-02-28T12:31:15;101257.88;;;14.32;27.95
24558;BME280;12726;49.148;8.582;2023-02-28T12:34:04;101280.47;;;13.35;29.30
24558;BME280;12726;49.148;8.582;2023-02-28T12:36:52;101283.81;;;12.37;30.13
24558;BME280;12726;49.148;8.582;2023-02-28T12:39:42;101281.44;;;11.17;32.51
24558;BME280;12726;49.148;8.582;2023-02-28T12:42:32;101278.47;;;10.12;34.18
24558;BME280;12726;49.148;8.582;2023-02-28T12:45:22;101274.41;;;9.43;35.60
24558;BME280;12726;49.148;8.582;2023-02-28T12:48:12;101267.75;;;9.54;36.46
24558;BME280;12726;49.148;8.582;2023-02-28T12:50:59;101276.72;;;8.94;37.01
24558;BME280;12726;49.148;8.582;2023-02-28T12:53:54;101278.34;;;8.18;38.34
24558;BME280;12726;49.148;8.582;2023-02-28T12:56:47;101279.59;;;7.61;39.48
24558;BME280;12726;49.148;8.582;2023-02-28T12:59:38;101265.19;;;7.62;40.01
24558;BME280;12726;49.148;8.582;2023-02-28T13:09:14;101266.16;;;7.77;40.63
24558;BME280;12726;49.148;8.582;2023-02-28T13:12:01;101267.97;;;7.84;40.62
24558;BME280;12726;49.148;8.582;2023-02-28T13:14:46;101257.50;;;7.59;41.05
24558;BME280;12726;49.148;8.582;2023-02-28T13:17:32;101271.78;;;7.43;41.70
24558;BME280;12726;49.148;8.582;2023-02-28T13:20:20;101260.06;;;7.36;41.84
24558;BME280;12726;49.148;8.582;2023-02-28T13:23:37;101265.28;;;7.13;43.21
24558;BME280;12726;49.148;8.582;2023-02-28T13:26:23;101262.00;;;7.66;41.39
24558;BME280;12726;49.148;8.582;2023-02-28T13:29:36;101265.25;;;7.45;41.68
24558;BME280;12726;49.148;8.582;2023-02-28T13:32:42;101273.47;;;7.28;42.38
24558;BME280;12726;49.148;8.582;2023-02-28T13:35:43;101259.78;;;7.15;42.35
24558;BME280;12726;49.148;8.582;2023-02-28T13:38:36;101264.97;;;6.76;43.30
24558;BME280;12726;49.148;8.582;2023-02-28T13:41:44;101266.13;;;6.89;43.19
24558;BME280;12726;49.148;8.582;2023-02-28T13:47:59;101268.97;;;7.20;42.61
24558;BME280;12726;49.148;8.582;2023-02-28T13:50:45;101273.31;;;7.21;42.31
24558;BME280;12726;49.148;8.582;2023-02-28T13:53:48;101272.16;;;6.91;42.23
24558;BME280;12726;49.148;8.582;2023-02-28T13:56:44;101271.47;;;6.57;43.33
24558;BME280;12726;49.148;8.582;2023-02-28T13:59:39;101267.31;;;6.71;44.05
24558;BME280;12726;49.148;8.582;2023-02-28T14:02:48;101278.69;;;6.73;43.66
24558;BME280;12726;49.148;8.582;2023-02-28T14:05:42;101267.13;;;6.56;43.49
24558;BME280;12726;49.148;8.582;2023-02-28T14:08:28;101274.94;;;6.25;43.54
24558;BME280;12726;49.148;8.582;2023-02-28T14:11:32;101267.06;;;6.15;44.08
24558;BME280;12726;49.148;8.582;2023-02-28T14:17:38;101269.22;;;6.20;44.76
24558;BME280;12726;49.148;8.582;2023-02-28T14:20:26;101268.78;;;6.49;44.21
24558;BME280;12726;49.148;8.582;2023-02-28T14:23:24;101268.25;;;6.29;43.76
24558;BME280;12726;49.148;8.582;2023-02-28T14:26:19;101272.94;;;6.35;43.95
24558;BME280;12726;49.148;8.582;2023-02-28T14:29:33;101278.44;;;6.17;43.76
24558;BME280;12726;49.148;8.582;2023-02-28T14:32:27;101274.50;;;5.96;44.20
24558;BME280;12726;49.148;8.582;2023-02-28T14:35:40;101263.00;;;6.03;44.88
24558;BME280;12726;49.148;8.582;2023-02-28T14:38:31;101261.16;;;5.96;44.79
24558;BME280;12726;49.148;8.582;2023-02-28T14:41:21;101263.97;;;5.94;44.96
24558;BME280;12726;49.148;8.582;2023-02-28T14:44:15;101270.31;;;5.93;45.02
24558;BME280;12726;49.148;8.582;2023-02-28T14:47:01;101266.31;;;5.97;45.54
24558;BME280;12726;49.148;8.582;2023-02-28T14:49:48;101263.16;;;6.02;44.59
24558;BME280;12726;49.148;8.582;2023-02-28T14:52:35;101276.84;;;5.99;44.68
24558;BME280;12726;49.148;8.582;2023-02-28T14:55:24;101256.28;;;5.99;44.62
24558;BME280;12726;49.148;8.582;2023-02-28T14:58:21;101253.28;;;5.94;44.81
24558;BME280;12726;49.148;8.582;2023-02-28T15:01:10;101263.81;;;5.96;45.42
24558;BME280;12726;49.148;8.582;2023-02-28T15:04:01;101260.47;;;5.94;45.64
24558;BME280;12726;49.148;8.582;2023-02-28T15:07:07;101263.03;;;6.19;45.09
24558;BME280;12726;49.148;8.582;2023-02-28T15:10:10;101267.56;;;6.11;44.67
24558;BME280;12726;49.148;8.582;2023-02-28T15:12:57;101263.63;;;5.97;45.43
24558;BME280;12726;49.148;8.582;2023-02-28T15:15:47;101258.88;;;5.83;45.67
24558;BME280;12726;49.148;8.582;2023-02-28T15:18:43;101261.03;;;5.79;45.79
24558;BME280;12726;49.148;8.582;2023-02-28T15:21:34;101264.22;;;5.75;45.96
24558;BME280;12726;49.148;8.582;2023-02-28T15:24:30;101267.97;;;5.64;46.33
24558;BME280;12726;49.148;8.582;2023-02-28T15:27:22;101266.00;;;5.66;46.34